createdAt,value
2018-11-13T00:02:25.193Z,23.90
2018-11-13T00:07:29.102Z,19.77
2018-11-13T00:12:34.561Z,16.63
2018-11-13T00:17:39.496Z,20.20
2018-11-13T00:22:44.089Z,22.33
2018-11-13T00:27:47.957Z,17.47
2018-11-13T00:32:52.092Z,19.37
2018-11-13T00:37:55.682Z,30.53
2018-11-13T00:42:59.146Z,28.60
2018-11-13T00:48:03.108Z,33.60
2018-11-13T00:53:07.064Z,25.00
2018-11-13T00:58:10.838Z,21.40
2018-11-13T01:03:14.543Z,30.90
2018-11-13T01:08:24.343Z,25.93
2018-11-13T01:13:30.244Z,20.93
2018-11-13T01:18:43.183Z,32.20
2018-11-13T01:23:47.640Z,24.57
2018-11-13T01:28:51.512Z,31.77
2018-11-13T01:33:54.983Z,37.07
2018-11-13T01:38:58.571Z,38.03
2018-11-13T01:44:02.471Z,35.97
2018-11-13T01:49:06.140Z,38.33
2018-11-13T01:54:11.504Z,36.60
2018-11-13T01:59:15.057Z,35.50
2018-11-13T02:04:18.511Z,27.53
2018-11-13T02:09:22.455Z,33.27
2018-11-13T02:14:26.086Z,28.50
2018-11-13T02:19:29.693Z,31.17
2018-11-13T02:24:33.816Z,35.07
2018-11-13T02:29:37.787Z,36.57
2018-11-13T02:34:42.045Z,44.77
2018-11-13T02:39:45.849Z,34.20
2018-11-13T02:45:10.283Z,31.83
2018-11-13T02:50:18.537Z,27.57
2018-11-13T02:55:23.065Z,36.93
2018-11-13T03:00:28.203Z,32.47
2018-11-13T03:05:36.357Z,33.03
2018-11-13T03:10:49.380Z,39.03
2018-11-13T03:15:53.510Z,31.53
2018-11-13T03:20:57.312Z,29.23
2018-11-13T03:26:08.752Z,40.97
2018-11-13T03:31:12.233Z,30.53
2018-11-13T03:36:17.209Z,34.83
2018-11-13T03:41:24.973Z,39.47
2018-11-13T03:46:29.129Z,35.00
2018-11-13T03:51:32.956Z,51.93
2018-11-13T03:56:36.841Z,54.77
2018-11-13T04:01:40.607Z,55.67
2018-11-13T04:06:44.746Z,33.10
2018-11-13T04:11:48.186Z,36.23
2018-11-13T04:16:52.071Z,39.30
2018-11-13T04:22:04.117Z,38.57
2018-11-13T04:27:09.226Z,47.77
2018-11-13T04:32:16.006Z,35.00
2018-11-13T04:37:19.911Z,58.00
2018-11-13T04:42:32.405Z,27.17
2018-11-13T04:47:36.094Z,43.33
2018-11-13T04:52:39.929Z,35.90
2018-11-13T04:57:44.782Z,36.43
2018-11-13T05:02:48.774Z,39.00
2018-11-13T05:07:53.503Z,38.57
2018-11-13T05:12:56.870Z,39.37
2018-11-13T05:18:00.912Z,35.70
2018-11-13T05:23:04.805Z,37.97
2018-11-13T05:28:08.805Z,43.23
2018-11-13T05:33:12.150Z,33.13
2018-11-13T05:38:16.012Z,48.30
2018-11-13T05:43:20.018Z,30.60
2018-11-13T05:48:23.995Z,44.33
2018-11-13T05:53:27.360Z,41.53
2018-11-13T05:58:30.976Z,37.93
2018-11-13T06:03:34.626Z,36.63
2018-11-13T06:08:38.069Z,30.53
2018-11-13T06:13:41.426Z,20.47
2018-11-13T06:18:45.659Z,37.57
2018-11-13T06:23:51.692Z,29.23
2018-11-13T06:28:56.105Z,37.13
2018-11-13T06:33:59.490Z,32.40
2018-11-13T06:39:08.509Z,37.20
2018-11-13T06:44:12.190Z,46.30
2018-11-13T06:49:15.625Z,28.00
2018-11-13T06:54:29.887Z,29.47
2018-11-13T06:59:37.023Z,35.80
2018-11-13T07:04:49.246Z,32.90
2018-11-13T07:09:53.034Z,40.07
2018-11-13T07:14:56.400Z,30.83
2018-11-13T07:19:59.848Z,26.73
2018-11-13T07:25:08.510Z,25.53
2018-11-13T07:30:13.521Z,34.33
2018-11-13T07:35:18.034Z,21.27
2018-11-13T07:40:21.662Z,36.00
2018-11-13T07:45:25.351Z,29.23
2018-11-13T07:50:28.718Z,34.07
2018-11-13T07:55:32.115Z,32.77
2018-11-13T08:00:35.521Z,28.60
2018-11-13T08:05:38.995Z,31.47
2018-11-13T08:10:42.687Z,40.20
2018-11-13T08:15:46.063Z,34.23
2018-11-13T08:20:49.508Z,31.23
2018-11-13T08:25:52.919Z,37.07
2018-11-13T08:30:56.513Z,32.80
2018-11-13T08:36:01.202Z,26.30
2018-11-13T08:41:09.623Z,23.60
2018-11-13T08:46:13.212Z,26.77
2018-11-13T08:51:16.620Z,26.23
2018-11-13T08:56:20.221Z,27.90
2018-11-13T09:01:24.061Z,37.83
2018-11-13T09:06:27.430Z,30.73
2018-11-13T09:11:30.770Z,28.83
2018-11-13T09:16:34.585Z,32.97
2018-11-13T09:21:38.339Z,25.40
2018-11-13T09:26:41.718Z,27.67
2018-11-13T09:31:45.136Z,30.67
2018-11-13T09:36:48.542Z,18.50
2018-11-13T09:41:51.496Z,32.13
2018-11-13T09:46:55.086Z,27.03
2018-11-13T09:51:58.453Z,36.57
2018-11-13T09:57:02.090Z,24.07
2018-11-13T10:02:05.744Z,37.67
2018-11-13T10:07:08.963Z,27.67
2018-11-13T10:12:12.381Z,29.47
2018-11-13T10:17:16.178Z,30.23
2018-11-13T10:22:19.969Z,28.40
2018-11-13T10:27:23.414Z,24.30
2018-11-13T10:32:26.797Z,34.90
2018-11-13T10:37:30.199Z,49.40
2018-11-13T10:42:34.038Z,36.87
2018-11-13T10:47:37.729Z,41.00
2018-11-13T10:53:43.742Z,42.63
2018-11-13T10:58:47.484Z,45.37
2018-11-13T11:03:56.557Z,32.67
2018-11-13T11:09:00.339Z,44.97
2018-11-13T11:14:04.655Z,35.10
2018-11-13T11:19:07.931Z,45.43
2018-11-13T11:24:11.545Z,40.30
2018-11-13T11:29:15.379Z,41.37
2018-11-13T11:34:19.081Z,40.07
2018-11-13T11:39:22.514Z,38.63
2018-11-13T11:44:25.981Z,41.50
2018-11-13T11:49:29.354Z,37.30
2018-11-13T11:54:32.748Z,38.40
2018-11-13T11:59:41.654Z,27.77
2018-11-13T12:04:45.063Z,41.50
2018-11-13T12:09:49.074Z,31.17
2018-11-13T12:14:53.133Z,40.40
2018-11-13T12:20:00.910Z,33.10
2018-11-13T12:25:05.854Z,37.60
2018-11-13T12:30:12.668Z,36.53
2018-11-13T12:35:23.158Z,39.40
2018-11-13T12:40:26.773Z,37.60
2018-11-13T12:45:39.616Z,38.23
2018-11-13T12:50:49.578Z,34.27
2018-11-13T12:55:53.038Z,33.40
2018-11-13T13:00:56.404Z,34.03
2018-11-13T13:06:00.109Z,25.80
2018-11-13T13:11:03.625Z,23.90
2018-11-13T13:16:07.113Z,38.10
2018-11-13T13:21:10.742Z,27.87
2018-11-13T13:26:14.235Z,30.80
2018-11-13T13:31:17.748Z,31.90
2018-11-13T13:36:21.102Z,28.73
2018-11-13T13:41:27.380Z,27.60
2018-11-13T13:46:30.950Z,23.37
2018-11-13T13:51:34.298Z,20.50
2018-11-13T13:56:37.706Z,21.40
2018-11-13T14:01:41.461Z,19.10
2018-11-13T14:06:45.494Z,21.93
2018-11-13T14:11:49.685Z,21.43
2018-11-13T14:16:53.106Z,19.53
2018-11-13T14:21:56.761Z,16.60
2018-11-13T14:27:04.895Z,14.60
2018-11-13T14:32:08.921Z,14.23
2018-11-13T14:37:16.589Z,16.13
2018-11-13T14:42:20.457Z,12.80
2018-11-13T14:47:23.828Z,11.97
2018-11-13T14:52:27.251Z,10.70
2018-11-13T14:57:32.725Z,9.13
2018-11-13T15:02:43.258Z,10.50
2018-11-13T15:07:48.117Z,8.90
2018-11-13T15:12:51.551Z,9.57
2018-11-13T15:17:55.546Z,8.67
2018-11-13T15:22:59.061Z,7.10
2018-11-13T15:28:02.953Z,6.00
2018-11-13T15:33:08.829Z,6.33
2018-11-13T15:38:12.457Z,7.10
2018-11-13T15:43:16.129Z,7.10
2018-11-13T15:48:19.802Z,6.07
2018-11-13T15:53:23.126Z,5.23
2018-11-13T15:58:26.760Z,7.70
2018-11-13T16:03:35.058Z,7.23
2018-11-13T16:08:38.462Z,7.67
2018-11-13T16:13:46.813Z,7.53
2018-11-13T16:18:50.205Z,7.33
2018-11-13T16:23:54.078Z,9.80
2018-11-13T16:28:58.079Z,12.60
2018-11-13T16:34:07.739Z,9.60
2018-11-13T16:39:13.247Z,9.10
2018-11-13T16:44:17.182Z,7.40
2018-11-13T16:49:21.957Z,9.13
2018-11-13T16:54:30.791Z,9.60
2018-11-13T16:59:34.414Z,9.87
2018-11-13T17:04:37.823Z,8.60
2018-11-13T17:09:41.211Z,8.60
2018-11-13T17:14:59.768Z,10.27
2018-11-13T17:20:03.596Z,7.50
2018-11-13T17:25:08.035Z,7.13
2018-11-13T17:30:16.676Z,7.90
2018-11-13T17:35:21.836Z,6.90
2018-11-13T17:40:30.070Z,7.07
2018-11-13T17:45:42.130Z,8.00
2018-11-13T17:50:52.703Z,8.87
2018-11-13T17:55:56.797Z,9.00
2018-11-13T18:01:00.469Z,7.23
2018-11-13T18:06:04.568Z,9.63
2018-11-13T18:11:08.156Z,9.20
2018-11-13T18:16:11.832Z,7.33
2018-11-13T18:21:15.534Z,7.90
2018-11-13T18:26:19.342Z,9.20
2018-11-13T18:31:23.198Z,10.10
2018-11-13T18:36:27.345Z,9.57
2018-11-13T18:41:30.826Z,8.47
2018-11-13T18:46:34.243Z,9.07
2018-11-13T18:51:42.138Z,8.80
2018-11-13T18:56:46.049Z,11.33
2018-11-13T19:01:49.597Z,10.10
2018-11-13T19:06:53.657Z,11.43
2018-11-13T19:12:01.479Z,10.43
2018-11-13T19:17:05.619Z,12.27
2018-11-13T19:22:09.169Z,10.23
2018-11-13T19:27:12.588Z,10.10
2018-11-13T19:32:16.389Z,8.57
2018-11-13T19:37:20.195Z,8.50
2018-11-13T19:42:23.955Z,7.97
2018-11-13T19:47:27.364Z,6.90
2018-11-13T19:52:30.788Z,5.93
2018-11-13T19:57:34.242Z,7.10
2018-11-13T20:02:38.340Z,8.80
2018-11-13T20:07:41.892Z,8.83
2018-11-13T20:12:46.894Z,9.47
2018-11-13T20:17:50.282Z,10.53
2018-11-13T20:22:54.080Z,11.40
2018-11-13T20:28:02.137Z,9.30
2018-11-13T20:33:05.838Z,12.70
2018-11-13T20:38:09.497Z,11.20
2018-11-13T20:43:13.155Z,10.37
2018-11-13T20:48:16.821Z,9.03
2018-11-13T20:53:20.185Z,10.57
2018-11-13T20:58:23.862Z,11.83
2018-11-13T21:03:27.290Z,9.03
2018-11-13T21:08:30.724Z,9.67
2018-11-13T21:13:34.253Z,8.17
2018-11-13T21:18:38.494Z,9.20
2018-11-13T21:23:42.133Z,7.10
2018-11-13T21:28:45.862Z,8.60
2018-11-13T21:33:49.537Z,15.90
2018-11-13T21:38:53.386Z,7.27
2018-11-13T21:43:56.814Z,8.37
2018-11-13T21:49:01.310Z,8.43
2018-11-13T21:54:05.015Z,5.53
2018-11-13T21:59:09.510Z,5.80
2018-11-13T22:04:13.043Z,5.20
2018-11-13T22:09:16.420Z,4.30
2018-11-13T22:14:20.411Z,7.13
2018-11-13T22:19:23.790Z,7.93
2018-11-13T22:24:27.410Z,5.50
2018-11-13T22:29:32.346Z,7.43
2018-11-13T22:34:36.358Z,7.10
2018-11-13T22:45:45.820Z,8.00
2018-11-13T22:50:49.185Z,8.43
2018-11-13T22:55:52.860Z,6.93
2018-11-13T23:00:56.622Z,6.63
2018-11-13T23:06:00.032Z,5.10
2018-11-13T23:11:09.270Z,4.33
2018-11-13T23:16:12.656Z,5.23
2018-11-13T23:21:16.253Z,4.30
2018-11-13T23:26:19.655Z,4.60
2018-11-13T23:31:23.332Z,5.77
2018-11-13T23:36:26.729Z,4.63
2018-11-13T23:41:30.345Z,4.30
2018-11-13T23:46:34.256Z,5.00
2018-11-13T23:51:37.607Z,4.90
2018-11-13T23:56:41.188Z,6.50
